sensor_id;sensor_type;location;lat;lon;timestamp;pressure;altitude;pressure_sealevel;temperature;humidity
8051;BME280;4068;42.158;24.732;2022-12-07T00:00:54;99842.16;;;4.80;100.00
8051;BME280;4068;42.158;24.732;2022-12-07T00:03:20;99846.75;;;4.76;100.00
8051;BME280;4068;42.158;24.732;2022-12-07T00:05:45;99863.81;;;4.85;100.00
8051;BME280;4068;42.158;24.732;2022-12-07T00:08:11;99861.41;;;4.80;100.00
8051;BME280;4068;42.158;24.732;2022-12-07T00:10:36;99847.53;;;4.61;100.00
8051;BME280;4068;42.158;24.732;2022-12-07T00:13:01;99852.16;;;4.56;100.00
8051;BME280;4068;42.158;24.732;2022-12-07T00:15:27;99864.28;;;4.58;100.00
8051;BME280;4068;42.158;24.732;2022-12-07T00:17:52;99860.34;;;4.49;100.00
8051;BME280;4068;42.158;24.732;2022-12-07T00:20:18;99851.47;;;4.52;100.00
8051;BME280;4068;42.158;24.732;2022-12-07T00:22:43;99840.94;;;4.35;100.00
8051;BME280;4068;42.158;24.732;2022-12-07T00:25:09;99872.56;;;4.51;100.00
8051;BME280;4068;42.158;24.732;2022-12-07T00:27:34;99865.50;;;4.51;100.00
8051;BME280;4068;42.158;24.732;2022-12-07T00:30:00;99868.47;;;4.45;100.00
8051;BME280;4068;42.158;24.732;2022-12-07T00:32:26;99866.00;;;4.42;100.00
8051;BME280;4068;42.158;24.732;2022-12-07T00:34:51;99870.28;;;4.43;100.00
8051;BME280;4068;42.158;24.732;2022-12-07T00:37:17;99827.72;;;4.19;100.00
8051;BME280;4068;42.158;24.732;2022-12-07T00:39:42;99868.53;;;4.43;100.00
8051;BME280;4068;42.158;24.732;2022-12-07T00:42:07;99869.13;;;4.48;100.00
8051;BME280;4068;42.158;24.732;2022-12-07T00:44:33;99860.88;;;4.56;100.00
8051;BME280;4068;42.158;24.732;2022-12-07T00:46:58;99849.75;;;4.51;100.00
8051;BME280;4068;42.158;24.732;2022-12-07T00:49:24;99830.97;;;4.41;100.00
8051;BME280;4068;42.158;24.732;2022-12-07T00:51:49;99859.72;;;4.62;100.00
8051;BME280;4068;42.158;24.732;2022-12-07T00:54:14;99835.31;;;4.42;100.00
8051;BME280;4068;42.158;24.732;2022-12-07T00:56:40;99857.63;;;4.51;100.00
8051;BME280;4068;42.158;24.732;2022-12-07T00:59:06;99861.03;;;4.36;100.00
8051;BME280;4068;42.158;24.732;2022-12-07T01:01:34;99828.97;;;4.11;100.00
8051;BME280;4068;42.158;24.732;2022-12-07T01:04:01;99840.31;;;4.12;100.00
8051;BME280;4068;42.158;24.732;2022-12-07T01:06:27;99848.66;;;4.20;100.00
8051;BME280;4068;42.158;24.732;2022-12-07T01:08:53;99851.19;;;4.22;100.00
8051;BME280;4068;42.158;24.732;2022-12-07T01:11:21;99850.34;;;4.21;100.00
8051;BME280;4068;42.158;24.732;2022-12-07T01:13:49;99849.53;;;4.21;100.00
8051;BME280;4068;42.158;24.732;2022-12-07T01:16:16;99852.06;;;4.22;100.00
8051;BME280;4068;42.158;24.732;2022-12-07T01:18:46;99843.19;;;4.25;100.00
8051;BME280;4068;42.158;24.732;2022-12-07T01:21:23;99837.31;;;4.20;100.00
8051;BME280;4068;42.158;24.732;2022-12-07T01:23:49;99832.03;;;4.02;100.00
8051;BME280;4068;42.158;24.732;2022-12-07T01:26:18;99806.00;;;3.97;100.00
8051;BME280;4068;42.158;24.732;2022-12-07T01:28:44;99837.69;;;4.12;100.00
8051;BME280;4068;42.158;24.732;2022-12-07T01:31:18;99832.50;;;4.10;100.00
8051;BME280;4068;42.158;24.732;2022-12-07T01:33:47;99831.16;;;4.21;100.00
8051;BME280;4068;42.158;24.732;2022-12-07T01:36:21;99838.78;;;4.25;100.00
8051;BME280;4068;42.158;24.732;2022-12-07T01:38:48;99820.56;;;4.22;100.00
8051;BME280;4068;42.158;24.732;2022-12-07T01:41:15;99826.50;;;4.26;100.00
8051;BME280;4068;42.158;24.732;2022-12-07T01:46:34;99815.00;;;4.28;100.00
8051;BME280;4068;42.158;24.732;2022-12-07T01:49:00;99807.03;;;4.30;100.00
8051;BME280;4068;42.158;24.732;2022-12-07T01:51:27;99796.16;;;4.20;100.00
8051;BME280;4068;42.158;24.732;2022-12-07T01:53:53;99808.19;;;4.24;100.00
8051;BME280;4068;42.158;24.732;2022-12-07T01:56:23;99820.63;;;4.21;100.00
8051;BME280;4068;42.158;24.732;2022-12-07T01:58:50;99826.56;;;4.24;100.00
8051;BME280;4068;42.158;24.732;2022-12-07T02:01:17;99795.53;;;4.15;100.00
8051;BME280;4068;42.158;24.732;2022-12-07T02:03:44;99811.13;;;4.36;100.00
8051;BME280;4068;42.158;24.732;2022-12-07T02:06:12;99802.19;;;4.40;100.00
8051;BME280;4068;42.158;24.732;2022-12-07T02:08:41;99804.81;;;4.40;100.00
8051;BME280;4068;42.158;24.732;2022-12-07T02:11:07;99780.19;;;4.25;100.00
8051;BME280;4068;42.158;24.732;2022-12-07T02:13:36;99806.19;;;4.47;100.00
8051;BME280;4068;42.158;24.732;2022-12-07T02:24:43;99794.44;;;4.54;100.00
8051;BME280;4068;42.158;24.732;2022-12-07T02:27:17;99768.19;;;4.37;100.00
8051;BME280;4068;42.158;24.732;2022-12-07T02:35:12;99780.72;;;4.49;100.00
8051;BME280;4068;42.158;24.732;2022-12-07T02:40:41;99759.00;;;4.45;100.00
8051;BME280;4068;42.158;24.732;2022-12-07T02:43:16;99789.47;;;4.65;100.00
8051;BME280;4068;42.158;24.732;2022-12-07T02:45:44;99786.69;;;4.69;100.00
8051;BME280;4068;42.158;24.732;2022-12-07T02:48:15;99753.75;;;4.45;100.00
8051;BME280;4068;42.158;24.732;2022-12-07T02:50:48;99770.19;;;4.49;100.00
8051;BME280;4068;42.158;24.732;2022-12-07T02:53:40;99781.75;;;4.62;100.00
8051;BME280;4068;42.158;24.732;2022-12-07T03:07:24;99764.41;;;4.76;100.00
8051;BME280;4068;42.158;24.732;2022-12-07T03:13:34;99766.19;;;4.75;100.00
8051;BME280;4068;42.158;24.732;2022-12-07T03:18:30;99787.41;;;4.88;100.00
8051;BME280;4068;42.158;24.732;2022-12-07T03:21:00;99786.34;;;4.92;100.00
8051;BME280;4068;42.158;24.732;2022-12-07T03:23:28;99793.03;;;4.98;100.00
8051;BME280;4068;42.158;24.732;2022-12-07T03:25:58;99791.78;;;5.05;100.00
8051;BME280;4068;42.158;24.732;2022-12-07T03:28:29;99757.59;;;4.89;100.00
8051;BME280;4068;42.158;24.732;2022-12-07T03:31:02;99784.16;;;5.00;100.00
8051;BME280;4068;42.158;24.732;2022-12-07T03:33:36;99772.84;;;4.98;100.00
8051;BME280;4068;42.158;24.732;2022-12-07T03:36:10;99782.19;;;5.04;100.00
8051;BME280;4068;42.158;24.732;2022-12-07T03:38:38;99786.97;;;5.13;100.00
8051;BME280;4068;42.158;24.732;2022-12-07T03:41:13;99786.00;;;4.98;100.00
8051;BME280;4068;42.158;24.732;2022-12-07T03:43:41;99777.84;;;4.87;100.00
8051;BME280;4068;42.158;24.732;2022-12-07T03:49:13;99763.22;;;5.15;100.00
8051;BME280;4068;42.158;24.732;2022-12-07T03:51:54;99773.47;;;5.19;100.00
8051;BME280;4068;42.158;24.732;2022-12-07T03:54:39;99768.75;;;5.10;100.00
8051;BME280;4068;42.158;24.732;2022-12-07T03:57:07;99765.91;;;4.97;100.00
8051;BME280;4068;42.158;24.732;2022-12-07T03:59:34;99744.91;;;4.64;100.00
8051;BME280;4068;42.158;24.732;2022-12-07T04:02:05;99771.81;;;4.85;100.00
8051;BME280;4068;42.158;24.732;2022-12-07T04:04:32;99745.81;;;4.63;100.00
8051;BME280;4068;42.158;24.732;2022-12-07T04:06:58;99774.63;;;4.82;100.00
8051;BME280;4068;42.158;24.732;2022-12-07T04:09:24;99764.38;;;4.93;100.00
8051;BME280;4068;42.158;24.732;2022-12-07T04:11:49;99767.84;;;4.94;100.00
8051;BME280;4068;42.158;24.732;2022-12-07T04:14:15;99766.06;;;4.94;100.00
8051;BME280;4068;42.158;24.732;2022-12-07T04:16:47;99745.47;;;4.87;100.00
8051;BME280;4068;42.158;24.732;2022-12-07T04:19:14;99758.31;;;5.25;100.00
8051;BME280;4068;42.158;24.732;2022-12-07T04:21:40;99763.13;;;5.32;100.00
8051;BME280;4068;42.158;24.732;2022-12-07T04:24:06;99740.38;;;4.99;100.00
8051;BME280;4068;42.158;24.732;2022-12-07T04:26:31;99757.25;;;4.95;100.00
8051;BME280;4068;42.158;24.732;2022-12-07T04:28:57;99759.16;;;4.76;100.00
8051;BME280;4068;42.158;24.732;2022-12-07T04:31:22;99761.16;;;4.55;100.00
8051;BME280;4068;42.158;24.732;2022-12-07T04:33:48;99755.75;;;4.40;100.00
8051;BME280;4068;42.158;24.732;2022-12-07T04:36:13;99750.16;;;4.30;100.00
8051;BME280;4068;42.158;24.732;2022-12-07T04:38:40;99755.78;;;4.23;100.00
8051;BME280;4068;42.158;24.732;2022-12-07T04:41:06;99721.19;;;3.97;100.00
8051;BME280;4068;42.158;24.732;2022-12-07T04:43:32;99728.97;;;3.98;100.00
8051;BME280;4068;42.158;24.732;2022-12-07T04:45:58;99760.19;;;4.05;100.00
8051;BME280;4068;42.158;24.732;2022-12-07T04:48:23;99757.00;;;3.98;100.00
8051;BME280;4068;42.158;24.732;2022-12-07T04:50:49;99746.75;;;3.93;100.00
8051;BME280;4068;42.158;24.732;2022-12-07T04:53:17;99741.63;;;3.90;100.00
8051;BME280;4068;42.158;24.732;2022-12-07T04:55:44;99734.91;;;3.85;100.00
8051;BME280;4068;42.158;24.732;2022-12-07T04:58:10;99754.91;;;3.87;100.00
8051;BME280;4068;42.158;24.732;2022-12-07T05:00:35;99747.91;;;3.88;100.00
8051;BME280;4068;42.158;24.732;2022-12-07T05:03:01;99755.16;;;4.00;100.00
8051;BME280;4068;42.158;24.732;2022-12-07T05:05:26;99756.09;;;3.99;100.00
8051;BME280;4068;42.158;24.732;2022-12-07T05:07:51;99768.25;;;3.83;100.00
8051;BME280;4068;42.158;24.732;2022-12-07T05:10:17;99761.94;;;3.69;100.00
8051;BME280;4068;42.158;24.732;2022-12-07T05:12:42;99753.25;;;3.67;100.00
8051;BME280;4068;42.158;24.732;2022-12-07T05:15:08;99762.84;;;3.68;100.00
8051;BME280;4068;42.158;24.732;2022-12-07T05:17:34;99763.16;;;3.62;100.00
8051;BME280;4068;42.158;24.732;2022-12-07T05:19:59;99724.13;;;3.37;100.00
8051;BME280;4068;42.158;24.732;2022-12-07T05:22:24;99759.25;;;3.52;100.00
8051;BME280;4068;42.158;24.732;2022-12-07T05:24:54;99762.25;;;3.44;100.00
8051;BME280;4068;42.158;24.732;2022-12-07T05:27:19;99735.13;;;3.26;100.00
8051;BME280;4068;42.158;24.732;2022-12-07T05:29:45;99770.25;;;3.41;100.00
8051;BME280;4068;42.158;24.732;2022-12-07T05:32:10;99767.19;;;3.50;100.00
8051;BME280;4068;42.158;24.732;2022-12-07T05:34:36;99766.75;;;3.59;100.00
8051;BME280;4068;42.158;24.732;2022-12-07T05:37:01;99740.28;;;3.47;100.00
8051;BME280;4068;42.158;24.732;2022-12-07T05:39:27;99737.44;;;3.51;100.00
8051;BME280;4068;42.158;24.732;2022-12-07T05:41:52;99763.69;;;3.69;100.00
8051;BME280;4068;42.158;24.732;2022-12-07T05:44:36;99759.06;;;3.74;100.00
8051;BME280;4068;42.158;24.732;2022-12-07T05:47:01;99766.63;;;3.80;100.00
8051;BME280;4068;42.158;24.732;2022-12-07T05:49:27;99766.78;;;3.77;100.00
8051;BME280;4068;42.158;24.732;2022-12-07T05:51:52;99779.66;;;3.82;100.00
8051;BME280;4068;42.158;24.732;2022-12-07T05:54:18;99739.72;;;3.76;100.00
8051;BME280;4068;42.158;24.732;2022-12-07T05:56:43;99769.13;;;4.01;100.00
8051;BME280;4068;42.158;24.732;2022-12-07T05:59:09;99764.56;;;4.04;100.00
8051;BME280;4068;42.158;24.732;2022-12-07T06:01:52;99777.38;;;4.10;100.00
8051;BME280;4068;42.158;24.732;2022-12-07T06:04:19;99779.31;;;4.24;100.00
8051;BME280;4068;42.158;24.732;2022-12-07T06:06:45;99774.38;;;4.18;100.00
8051;BME280;4068;42.158;24.732;2022-12-07T06:09:10;99763.03;;;4.18;100.00
8051;BME280;4068;42.158;24.732;2022-12-07T06:11:38;99766.97;;;4.26;100.00
8051;BME280;4068;42.158;24.732;2022-12-07T06:14:22;99767.25;;;4.20;100.00
8051;BME280;4068;42.158;24.732;2022-12-07T06:16:47;99776.44;;;4.29;100.00
8051;BME280;4068;42.158;24.732;2022-12-07T06:19:13;99781.16;;;4.40;100.00
8051;BME280;4068;42.158;24.732;2022-12-07T06:21:38;99780.63;;;4.51;100.00
8051;BME280;4068;42.158;24.732;2022-12-07T06:24:04;99774.22;;;4.56;100.00
8051;BME280;4068;42.158;24.732;2022-12-07T06:26:30;99790.09;;;4.71;100.00
8051;BME280;4068;42.158;24.732;2022-12-07T06:28:55;99783.66;;;4.76;100.00
8051;BME280;4068;42.158;24.732;2022-12-07T06:31:21;99772.81;;;4.82;100.00
8051;BME280;4068;42.158;24.732;2022-12-07T06:33:47;99793.22;;;4.95;100.00
8051;BME280;4068;42.158;24.732;2022-12-07T06:36:13;99791.59;;;4.92;100.00
8051;BME280;4068;42.158;24.732;2022-12-07T06:38:38;99795.06;;;5.09;100.00
8051;BME280;4068;42.158;24.732;2022-12-07T06:41:04;99791.94;;;5.02;100.00
8051;BME280;4068;42.158;24.732;2022-12-07T06:43:29;99769.13;;;4.87;100.00
8051;BME280;4068;42.158;24.732;2022-12-07T06:45:55;99787.63;;;5.01;100.00
8051;BME280;4068;42.158;24.732;2022-12-07T06:48:20;99802.84;;;5.28;100.00
8051;BME280;4068;42.158;24.732;2022-12-07T06:50:47;99803.50;;;5.31;100.00
8051;BME280;4068;42.158;24.732;2022-12-07T06:53:13;99771.81;;;5.34;100.00
8051;BME280;4068;42.158;24.732;2022-12-07T06:55:38;99803.78;;;5.59;100.00
8051;BME280;4068;42.158;24.732;2022-12-07T06:58:04;99801.06;;;5.60;100.00
8051;BME280;4068;42.158;24.732;2022-12-07T07:00:29;99804.28;;;5.49;100.00
8051;BME280;4068;42.158;24.732;2022-12-07T07:02:56;99768.91;;;5.39;100.00
8051;BME280;4068;42.158;24.732;2022-12-07T07:05:22;99797.66;;;5.58;100.00
8051;BME280;4068;42.158;24.732;2022-12-07T07:07:48;99796.63;;;5.77;100.00
8051;BME280;4068;42.158;24.732;2022-12-07T07:10:14;99795.06;;;5.88;100.00
8051;BME280;4068;42.158;24.732;2022-12-07T07:12:39;99790.22;;;6.13;100.00
8051;BME280;4068;42.158;24.732;2022-12-07T07:15:05;99785.16;;;6.40;100.00
8051;BME280;4068;42.158;24.732;2022-12-07T07:17:31;99802.50;;;6.59;100.00
8051;BME280;4068;42.158;24.732;2022-12-07T07:19:56;99799.56;;;6.63;100.00
8051;BME280;4068;42.158;24.732;2022-12-07T07:22:21;99786.50;;;6.62;100.00
8051;BME280;4068;42.158;24.732;2022-12-07T07:24:47;99810.03;;;6.94;100.00
8051;BME280;4068;42.158;24.732;2022-12-07T07:27:12;99776.59;;;6.65;100.00
8051;BME280;4068;42.158;24.732;2022-12-07T07:29:38;99809.41;;;7.04;100.00
8051;BME280;4068;42.158;24.732;2022-12-07T07:32:03;99808.06;;;7.12;100.00
8051;BME280;4068;42.158;24.732;2022-12-07T07:34:29;99814.19;;;7.12;100.00
8051;BME280;4068;42.158;24.732;2022-12-07T07:36:54;99807.78;;;7.16;100.00
8051;BME280;4068;42.158;24.732;2022-12-07T07:39:20;99786.41;;;7.06;100.00
8051;BME280;4068;42.158;24.732;2022-12-07T07:41:46;99816.72;;;7.28;100.00
8051;BME280;4068;42.158;24.732;2022-12-07T07:44:11;99833.38;;;7.43;100.00
8051;BME280;4068;42.158;24.732;2022-12-07T07:46:37;99835.16;;;7.57;100.00
8051;BME280;4068;42.158;24.732;2022-12-07T07:49:02;99803.53;;;7.42;100.00
8051;BME280;4068;42.158;24.732;2022-12-07T07:51:27;99829.69;;;7.60;100.00
8051;BME280;4068;42.158;24.732;2022-12-07T07:53:53;99834.75;;;7.63;100.00
8051;BME280;4068;42.158;24.732;2022-12-07T07:56:19;99829.28;;;7.66;100.00
8051;BME280;4068;42.158;24.732;2022-12-07T07:58:44;99826.94;;;7.62;100.00
8051;BME280;4068;42.158;24.732;2022-12-07T08:01:10;99829.66;;;7.74;100.00
8051;BME280;4068;42.158;24.732;2022-12-07T08:03:35;99831.53;;;7.72;100.00
8051;BME280;4068;42.158;24.732;2022-12-07T08:06:04;99833.22;;;7.73;100.00
8051;BME280;4068;42.158;24.732;2022-12-07T08:08:30;99777.19;;;7.55;100.00
8051;BME280;4068;42.158;24.732;2022-12-07T08:10:55;99834.38;;;7.97;100.00
8051;BME280;4068;42.158;24.732;2022-12-07T08:13:21;99831.59;;;8.12;100.00
8051;BME280;4068;42.158;24.732;2022-12-07T08:15:47;99818.72;;;8.21;100.00
8051;BME280;4068;42.158;24.732;2022-12-07T08:18:14;99839.75;;;8.50;100.00
8051;BME280;4068;42.158;24.732;2022-12-07T08:20:39;99836.56;;;8.44;100.00
8051;BME280;4068;42.158;24.732;2022-12-07T08:23:06;99833.00;;;8.71;100.00
8051;BME280;4068;42.158;24.732;2022-12-07T08:25:32;99830.59;;;9.07;100.00
8051;BME280;4068;42.158;24.732;2022-12-07T08:27:58;99831.28;;;9.35;100.00
8051;BME280;4068;42.158;24.732;2022-12-07T08:30:28;99817.63;;;9.41;100.00
8051;BME280;4068;42.158;24.732;2022-12-07T08:32:53;99823.50;;;9.57;100.00
8051;BME280;4068;42.158;24.732;2022-12-07T08:35:19;99819.97;;;9.70;100.00
8051;BME280;4068;42.158;24.732;2022-12-07T08:37:44;99822.13;;;9.89;100.00
8051;BME280;4068;42.158;24.732;2022-12-07T08:40:12;99786.78;;;10.01;100.00
8051;BME280;4068;42.158;24.732;2022-12-07T08:42:52;99813.81;;;10.17;100.00
8051;BME280;4068;42.158;24.732;2022-12-07T08:45:19;99809.97;;;10.46;100.00
8051;BME280;4068;42.158;24.732;2022-12-07T08:47:52;99807.16;;;10.83;100.00
8051;BME280;4068;42.158;24.732;2022-12-07T08:50:20;99773.41;;;10.96;100.00
8051;BME280;4068;42.158;24.732;2022-12-07T08:52:57;99776.06;;;11.08;100.00
8051;BME280;4068;42.158;24.732;2022-12-07T08:55:23;99795.72;;;11.16;100.00
8051;BME280;4068;42.158;24.732;2022-12-07T08:57:49;99794.00;;;11.38;100.00
8051;BME280;4068;42.158;24.732;2022-12-07T09:00:15;99778.00;;;11.72;100.00
8051;BME280;4068;42.158;24.732;2022-12-07T09:02:45;99777.75;;;11.75;98.16
8051;BME280;4068;42.158;24.732;2022-12-07T09:05:11;99779.00;;;11.60;98.43
8051;BME280;4068;42.158;24.732;2022-12-07T09:07:37;99778.41;;;11.67;99.68
8051;BME280;4068;42.158;24.732;2022-12-07T09:10:04;99765.94;;;11.68;99.75
8051;BME280;4068;42.158;24.732;2022-12-07T09:12:29;99766.34;;;11.52;99.73
8051;BME280;4068;42.158;24.732;2022-12-07T09:14:55;99760.16;;;11.63;100.00
8051;BME280;4068;42.158;24.732;2022-12-07T09:17:21;99751.34;;;11.62;100.00
8051;BME280;4068;42.158;24.732;2022-12-07T09:19:46;99757.06;;;11.46;100.00
8051;BME280;4068;42.158;24.732;2022-12-07T09:22:12;99748.59;;;11.52;100.00
8051;BME280;4068;42.158;24.732;2022-12-07T09:24:37;99741.09;;;11.57;100.00
8051;BME280;4068;42.158;24.732;2022-12-07T09:27:03;99740.00;;;11.71;100.00
8051;BME280;4068;42.158;24.732;2022-12-07T09:29:28;99735.09;;;11.44;99.02
8051;BME280;4068;42.158;24.732;2022-12-07T09:31:53;99731.25;;;11.26;100.00
8051;BME280;4068;42.158;24.732;2022-12-07T09:34:19;99731.63;;;11.32;100.00
8051;BME280;4068;42.158;24.732;2022-12-07T09:36:45;99729.06;;;11.42;100.00
8051;BME280;4068;42.158;24.732;2022-12-07T09:39:10;99718.16;;;11.56;99.19
8051;BME280;4068;42.158;24.732;2022-12-07T09:41:41;99718.00;;;11.69;98.86
8051;BME280;4068;42.158;24.732;2022-12-07T09:44:12;99708.47;;;11.67;96.88
8051;BME280;4068;42.158;24.732;2022-12-07T09:46:40;99694.88;;;11.81;96.48
8051;BME280;4068;42.158;24.732;2022-12-07T09:49:12;99710.38;;;11.76;95.49
8051;BME280;4068;42.158;24.732;2022-12-07T09:51:39;99703.88;;;11.69;96.54
8051;BME280;4068;42.158;24.732;2022-12-07T09:54:05;99695.94;;;11.90;96.77
8051;BME280;4068;42.158;24.732;2022-12-07T09:56:31;99641.66;;;11.50;96.06
8051;BME280;4068;42.158;24.732;2022-12-07T09:59:00;99695.72;;;12.14;96.20
8051;BME280;4068;42.158;24.732;2022-12-07T10:01:31;99700.25;;;12.23;93.63
8051;BME280;4068;42.158;24.732;2022-12-07T10:04:24;99703.69;;;12.66;94.15
8051;BME280;4068;42.158;24.732;2022-12-07T10:06:51;99692.03;;;12.57;93.11
8051;BME280;4068;42.158;24.732;2022-12-07T10:09:19;99698.25;;;12.68;91.85
8051;BME280;4068;42.158;24.732;2022-12-07T10:12:05;99702.06;;;12.75;91.21
8051;BME280;4068;42.158;24.732;2022-12-07T10:14:33;99693.50;;;12.71;91.67
8051;BME280;4068;42.158;24.732;2022-12-07T10:16:59;99698.59;;;12.84;91.56
8051;BME280;4068;42.158;24.732;2022-12-07T10:19:30;99686.31;;;12.93;91.25
8051;BME280;4068;42.158;24.732;2022-12-07T10:24:28;99668.69;;;13.11;90.66
8051;BME280;4068;42.158;24.732;2022-12-07T10:26:54;99666.50;;;12.76;91.11
8051;BME280;4068;42.158;24.732;2022-12-07T10:29:37;99656.88;;;12.54;92.93
8051;BME280;4068;42.158;24.732;2022-12-07T10:32:23;99662.78;;;12.57;93.51
8051;BME280;4068;42.158;24.732;2022-12-07T10:34:52;99654.63;;;12.49;94.54
8051;BME280;4068;42.158;24.732;2022-12-07T10:37:40;99658.31;;;12.27;94.75
8051;BME280;4068;42.158;24.732;2022-12-07T10:43:00;99645.22;;;12.14;94.34
8051;BME280;4068;42.158;24.732;2022-12-07T10:45:26;99662.06;;;12.24;92.86
8051;BME280;4068;42.158;24.732;2022-12-07T10:47:58;99666.56;;;12.34;92.70
8051;BME280;4068;42.158;24.732;2022-12-07T10:58:42;99641.22;;;13.01;91.16
8051;BME280;4068;42.158;24.732;2022-12-07T11:06:51;99649.81;;;12.74;90.79
8051;BME280;4068;42.158;24.732;2022-12-07T11:12:13;99622.50;;;12.72;90.35
8051;BME280;4068;42.158;24.732;2022-12-07T11:14:56;99622.91;;;12.67;92.03
8051;BME280;4068;42.158;24.732;2022-12-07T11:20:44;99638.00;;;12.26;93.75
8051;BME280;4068;42.158;24.732;2022-12-07T11:37:32;99609.78;;;11.92;97.46
8051;BME280;4068;42.158;24.732;2022-12-07T11:40:17;99573.91;;;11.56;99.21
8051;BME280;4068;42.158;24.732;2022-12-07T11:43:04;99600.31;;;11.36;100.00
8051;BME280;4068;42.158;24.732;2022-12-07T11:45:33;99600.03;;;11.39;100.00
8051;BME280;4068;42.158;24.732;2022-12-07T11:48:03;99594.81;;;11.49;100.00
8051;BME280;4068;42.158;24.732;2022-12-07T11:50:51;99583.28;;;11.39;99.04
8051;BME280;4068;42.158;24.732;2022-12-07T11:56:08;99585.56;;;11.44;100.00
8051;BME280;4068;42.158;24.732;2022-12-07T12:09:14;99573.72;;;11.90;97.62
8051;BME280;4068;42.158;24.732;2022-12-07T12:20:19;99548.06;;;12.41;94.72
8051;BME280;4068;42.158;24.732;2022-12-07T12:22:58;99566.28;;;12.46;94.21
8051;BME280;4068;42.158;24.732;2022-12-07T12:27:55;99559.34;;;12.84;92.98
8051;BME280;4068;42.158;24.732;2022-12-07T12:30:26;99573.38;;;12.86;91.76
8051;BME280;4068;42.158;24.732;2022-12-07T12:33:02;99558.25;;;12.86;93.12
8051;BME280;4068;42.158;24.732;2022-12-07T12:38:25;99545.91;;;12.85;92.02
8051;BME280;4068;42.158;24.732;2022-12-07T12:40:53;99542.84;;;12.80;92.49
8051;BME280;4068;42.158;24.732;2022-12-07T12:43:42;99539.88;;;12.73;93.25
8051;BME280;4068;42.158;24.732;2022-12-07T12:57:05;99538.66;;;12.37;95.73
8051;BME280;4068;42.158;24.732;2022-12-07T12:59:42;99541.69;;;12.22;96.11
8051;BME280;4068;42.158;24.732;2022-12-07T13:02:33;99537.38;;;12.21;96.22
8051;BME280;4068;42.158;24.732;2022-12-07T13:15:54;99513.69;;;11.87;97.80
8051;BME280;4068;42.158;24.732;2022-12-07T13:18:39;99530.91;;;11.93;98.09
8051;BME280;4068;42.158;24.732;2022-12-07T13:26:17;99538.38;;;11.78;99.13
8051;BME280;4068;42.158;24.732;2022-12-07T13:28:49;99525.09;;;11.78;99.36
8051;BME280;4068;42.158;24.732;2022-12-07T13:33:51;99534.56;;;11.71;99.89
8051;BME280;4068;42.158;24.732;2022-12-07T13:36:30;99539.66;;;11.84;99.71
8051;BME280;4068;42.158;24.732;2022-12-07T13:39:20;99534.63;;;11.81;99.33
8051;BME280;4068;42.158;24.732;2022-12-07T13:41:57;99539.88;;;11.71;99.02
8051;BME280;4068;42.158;24.732;2022-12-07T13:44:26;99511.66;;;11.49;99.20
8051;BME280;4068;42.158;24.732;2022-12-07T13:49:30;99533.59;;;11.51;99.53
8051;BME280;4068;42.158;24.732;2022-12-07T13:52:14;99525.81;;;11.17;99.83
8051;BME280;4068;42.158;24.732;2022-12-07T13:55:29;99537.88;;;11.21;100.00
8051;BME280;4068;42.158;24.732;2022-12-07T13:57:30;99543.47;;;11.07;100.00
8051;BME280;4068;42.158;24.732;2022-12-07T13:59:57;99536.78;;;10.91;100.00
8051;BME280;4068;42.158;24.732;2022-12-07T14:02:31;99528.59;;;10.83;100.00
8051;BME280;4068;42.158;24.732;2022-12-07T14:08:02;99538.91;;;10.65;100.00
8051;BME280;4068;42.158;24.732;2022-12-07T14:12:56;99541.09;;;10.48;100.00
8051;BME280;4068;42.158;24.732;2022-12-07T14:15:33;99537.25;;;10.41;100.00
8051;BME280;4068;42.158;24.732;2022-12-07T14:18:02;99534.97;;;10.25;100.00
8051;BME280;4068;42.158;24.732;2022-12-07T14:20:40;99534.84;;;10.15;100.00
8051;BME280;4068;42.158;24.732;2022-12-07T14:23:23;99542.53;;;10.18;100.00
8051;BME280;4068;42.158;24.732;2022-12-07T14:25:52;99531.59;;;10.12;100.00
8051;BME280;4068;42.158;24.732;2022-12-07T14:28:32;99530.75;;;10.11;100.00
8051;BME280;4068;42.158;24.732;2022-12-07T14:30:59;99525.19;;;10.03;100.00
8051;BME280;4068;42.158;24.732;2022-12-07T14:33:25;99518.81;;;9.94;100.00
8051;BME280;4068;42.158;24.732;2022-12-07T14:35:51;99534.25;;;10.00;100.00
8051;BME280;4068;42.158;24.732;2022-12-07T14:38:21;99541.59;;;9.97;100.00
8051;BME280;4068;42.158;24.732;2022-12-07T14:40:47;99539.28;;;9.92;100.00
8051;BME280;4068;42.158;24.732;2022-12-07T14:43:15;99527.81;;;9.80;100.00
8051;BME280;4068;42.158;24.732;2022-12-07T14:45:41;99540.34;;;9.78;100.00
8051;BME280;4068;42.158;24.732;2022-12-07T14:48:10;99533.13;;;9.69;100.00
8051;BME280;4068;42.158;24.732;2022-12-07T14:50:58;99529.25;;;9.50;100.00
8051;BME280;4068;42.158;24.732;2022-12-07T14:53:29;99523.56;;;9.44;100.00
8051;BME280;4068;42.158;24.732;2022-12-07T14:55:55;99527.78;;;9.35;100.00
8051;BME280;4068;42.158;24.732;2022-12-07T14:58:20;99526.88;;;9.23;100.00
8051;BME280;4068;42.158;24.732;2022-12-07T15:00:46;99533.34;;;9.19;100.00
8051;BME280;4068;42.158;24.732;2022-12-07T15:03:13;99533.09;;;9.11;100.00
8051;BME280;4068;42.158;24.732;2022-12-07T15:05:39;99524.38;;;8.97;100.00
8051;BME280;4068;42.158;24.732;2022-12-07T15:08:05;99499.16;;;8.80;100.00
8051;BME280;4068;42.158;24.732;2022-12-07T15:10:32;99523.50;;;8.86;100.00
8051;BME280;4068;42.158;24.732;2022-12-07T15:13:00;99517.19;;;8.75;100.00
8051;BME280;4068;42.158;24.732;2022-12-07T15:15:44;99535.63;;;8.64;100.00
8051;BME280;4068;42.158;24.732;2022-12-07T15:18:10;99541.97;;;8.61;100.00
8051;BME280;4068;42.158;24.732;2022-12-07T15:20:35;99533.25;;;8.48;100.00
8051;BME280;4068;42.158;24.732;2022-12-07T15:23:01;99548.78;;;8.53;100.00
8051;BME280;4068;42.158;24.732;2022-12-07T15:25:26;99550.69;;;8.51;100.00
8051;BME280;4068;42.158;24.732;2022-12-07T15:27:52;99538.31;;;8.38;100.00
8051;BME280;4068;42.158;24.732;2022-12-07T15:30:17;99560.06;;;8.42;100.00
8051;BME280;4068;42.158;24.732;2022-12-07T15:32:43;99559.69;;;8.35;100.00
8051;BME280;4068;42.158;24.732;2022-12-07T15:35:08;99569.09;;;8.26;100.00
8051;BME280;4068;42.158;24.732;2022-12-07T15:37:34;99559.28;;;8.16;100.00
8051;BME280;4068;42.158;24.732;2022-12-07T15:39:59;99566.91;;;8.07;100.00
8051;BME280;4068;42.158;24.732;2022-12-07T15:42:24;99563.00;;;8.00;100.00